createdAt,value
2019-04-07T00:00:12.375Z,99.90
2019-04-07T00:02:41.083Z,99.90
2019-04-07T00:05:13.737Z,99.90
2019-04-07T00:07:40.206Z,99.90
2019-04-07T00:10:12.060Z,99.90
2019-04-07T00:12:41.302Z,99.90
2019-04-07T00:15:10.419Z,99.90
2019-04-07T00:17:39.021Z,99.90
2019-04-07T00:20:07.657Z,99.90
2019-04-07T00:22:36.120Z,99.90
2019-04-07T00:25:05.299Z,99.90
2019-04-07T00:27:33.978Z,99.90
2019-04-07T00:30:02.588Z,99.90
2019-04-07T00:32:31.060Z,99.90
2019-04-07T00:34:59.965Z,99.90
2019-04-07T00:37:29.473Z,99.90
2019-04-07T00:39:58.907Z,99.90
2019-04-07T00:42:27.717Z,99.90
2019-04-07T00:44:56.201Z,99.90
2019-04-07T00:47:24.928Z,99.90
2019-04-07T00:49:53.421Z,99.90
2019-04-07T00:52:25.365Z,99.90
2019-04-07T00:54:54.541Z,99.90
2019-04-07T00:57:23.261Z,99.90
2019-04-07T00:59:51.758Z,99.90
2019-04-07T01:02:21.242Z,99.90
2019-04-07T01:04:49.944Z,99.90
2019-04-07T01:07:19.130Z,99.90
2019-04-07T01:09:48.020Z,99.90
2019-04-07T01:12:16.576Z,99.90
2019-04-07T01:14:45.134Z,99.90
2019-04-07T01:17:13.794Z,99.90
2019-04-07T01:19:43.355Z,99.90
2019-04-07T01:22:11.887Z,99.90
2019-04-07T01:24:40.636Z,99.90
2019-04-07T01:27:09.324Z,99.90
2019-04-07T01:29:37.853Z,99.90
2019-04-07T01:32:06.314Z,99.90
2019-04-07T01:34:35.038Z,99.90
2019-04-07T01:37:23.083Z,99.90
2019-04-07T01:39:51.644Z,99.90
2019-04-07T01:42:33.493Z,99.90
2019-04-07T01:45:20.576Z,99.90
2019-04-07T01:47:54.088Z,99.90
2019-04-07T01:50:24.495Z,99.90
2019-04-07T01:52:57.142Z,99.90
2019-04-07T01:55:27.735Z,99.90
2019-04-07T01:58:10.803Z,99.90
2019-04-07T02:00:57.764Z,99.90
2019-04-07T02:03:44.160Z,99.90
2019-04-07T02:06:14.279Z,99.90
2019-04-07T02:08:44.412Z,99.90
2019-04-07T02:11:23.440Z,99.90
2019-04-07T02:13:59.421Z,99.90
2019-04-07T02:16:29.978Z,99.90
2019-04-07T02:19:00.865Z,99.90
2019-04-07T02:21:31.092Z,99.90
2019-04-07T02:24:20.231Z,99.90
2019-04-07T02:26:50.548Z,99.90
2019-04-07T02:29:27.132Z,99.90
2019-04-07T02:32:00.306Z,99.90
2019-04-07T02:34:30.464Z,99.90
2019-04-07T02:37:17.498Z,99.90
2019-04-07T02:40:05.000Z,99.90
2019-04-07T02:42:36.437Z,99.90
2019-04-07T02:45:09.098Z,99.90
2019-04-07T02:47:46.714Z,99.90
2019-04-07T02:50:26.262Z,99.90
2019-04-07T02:53:09.496Z,99.90
2019-04-07T02:55:58.027Z,99.90
2019-04-07T02:58:29.218Z,99.90
2019-04-07T03:01:03.826Z,99.90
2019-04-07T03:03:40.634Z,99.90
2019-04-07T03:06:39.365Z,99.90
2019-04-07T03:09:01.981Z,99.90
2019-04-07T03:11:32.206Z,99.90
2019-04-07T03:14:05.674Z,99.90
2019-04-07T03:16:43.754Z,99.90
2019-04-07T03:19:15.141Z,99.90
2019-04-07T03:22:00.930Z,99.90
2019-04-07T03:24:46.360Z,99.90
2019-04-07T03:27:19.479Z,99.90
2019-04-07T03:30:01.547Z,99.90
2019-04-07T03:32:37.423Z,99.90
2019-04-07T03:35:26.542Z,99.90
2019-04-07T03:37:57.135Z,99.90
2019-04-07T03:40:44.190Z,99.90
2019-04-07T03:43:17.726Z,99.90
2019-04-07T03:45:48.228Z,99.90
2019-04-07T03:48:18.379Z,99.90
2019-04-07T03:50:48.692Z,99.90
2019-04-07T03:53:35.680Z,99.90
2019-04-07T03:56:23.147Z,99.90
2019-04-07T03:58:56.276Z,99.90
2019-04-07T04:02:01.081Z,99.90
2019-04-07T04:04:43.663Z,99.90
2019-04-07T04:07:28.426Z,99.90
2019-04-07T04:09:53.751Z,99.90
2019-04-07T04:12:24.447Z,99.90
2019-04-07T04:14:57.212Z,99.90
2019-04-07T04:17:25.734Z,99.90
2019-04-07T04:19:55.124Z,99.90
2019-04-07T04:22:23.716Z,99.90
2019-04-07T04:24:53.440Z,99.90
2019-04-07T04:27:22.275Z,99.90
2019-04-07T04:29:52.045Z,99.90
2019-04-07T04:32:21.985Z,99.90
2019-04-07T04:34:51.467Z,99.90
2019-04-07T04:37:34.369Z,99.90
2019-04-07T04:39:51.156Z,99.90
2019-04-07T04:42:20.405Z,99.90
2019-04-07T04:44:49.067Z,99.90
2019-04-07T04:47:17.533Z,99.90
2019-04-07T04:49:46.004Z,99.90
2019-04-07T04:52:14.496Z,99.90
2019-04-07T04:54:42.965Z,99.90
2019-04-07T04:57:11.477Z,99.90
2019-04-07T04:59:40.317Z,99.90
2019-04-07T05:02:17.139Z,99.90
2019-04-07T05:07:28.894Z,99.90
2019-04-07T05:09:57.675Z,99.90
2019-04-07T05:12:26.144Z,99.90
2019-04-07T05:14:54.782Z,99.90
2019-04-07T05:17:23.284Z,99.90
2019-04-07T05:19:52.178Z,99.90
2019-04-07T05:22:21.292Z,99.90
2019-04-07T05:24:50.498Z,99.90
2019-04-07T05:27:19.127Z,99.90
2019-04-07T05:29:47.858Z,99.90
2019-04-07T05:32:16.874Z,99.90
2019-04-07T05:34:45.596Z,99.90
2019-04-07T05:37:14.172Z,99.90
2019-04-07T05:39:42.640Z,99.90
2019-04-07T05:42:11.139Z,99.90
2019-04-07T05:44:59.617Z,99.90
2019-04-07T05:47:28.401Z,99.90
2019-04-07T05:49:58.737Z,99.90
2019-04-07T05:52:27.265Z,99.90
2019-04-07T05:55:15.253Z,99.90
2019-04-07T05:57:44.211Z,99.90
2019-04-07T06:00:16.340Z,99.90
2019-04-07T06:02:44.122Z,99.90
2019-04-07T06:05:12.832Z,99.90
2019-04-07T06:07:41.564Z,99.90
2019-04-07T06:10:10.688Z,99.90
2019-04-07T06:12:41.999Z,99.90
2019-04-07T06:15:10.976Z,99.90
2019-04-07T06:17:40.030Z,99.90
2019-04-07T06:20:13.531Z,99.90
2019-04-07T06:22:39.279Z,99.90
2019-04-07T06:25:09.590Z,99.90
2019-04-07T06:27:38.443Z,99.90
2019-04-07T06:30:08.561Z,99.90
2019-04-07T06:32:38.495Z,99.90
2019-04-07T06:35:08.459Z,99.90
2019-04-07T06:37:37.399Z,99.90
2019-04-07T06:40:06.203Z,99.90
2019-04-07T06:42:37.564Z,99.90
2019-04-07T06:45:11.903Z,99.90
2019-04-07T06:47:44.326Z,99.90
2019-04-07T06:50:32.322Z,99.90
2019-04-07T06:53:21.158Z,99.90
2019-04-07T06:55:58.182Z,99.90
2019-04-07T06:58:27.953Z,99.90
2019-04-07T07:01:16.733Z,99.90
2019-04-07T07:03:56.212Z,99.90
2019-04-07T07:06:56.863Z,99.90
2019-04-07T07:09:29.413Z,99.90
2019-04-07T07:12:24.450Z,99.90
2019-04-07T07:14:56.082Z,99.90
2019-04-07T07:17:32.292Z,99.90
2019-04-07T07:20:20.078Z,99.90
2019-04-07T07:22:55.004Z,99.90
2019-04-07T07:25:29.814Z,99.90
2019-04-07T07:28:01.564Z,99.90
2019-04-07T07:30:33.297Z,99.90
2019-04-07T07:33:07.356Z,99.90
2019-04-07T07:35:37.691Z,99.90
2019-04-07T07:38:10.335Z,99.90
2019-04-07T07:40:42.626Z,99.90
2019-04-07T07:43:16.154Z,99.90
2019-04-07T07:45:48.316Z,99.90
2019-04-07T07:48:20.822Z,99.90
2019-04-07T07:50:53.771Z,99.90
2019-04-07T07:53:28.149Z,99.90
2019-04-07T07:55:57.651Z,99.90
2019-04-07T07:58:31.703Z,99.90
2019-04-07T08:01:01.926Z,99.90
2019-04-07T08:03:33.906Z,99.90
2019-04-07T08:06:08.202Z,99.90
2019-04-07T08:08:37.972Z,99.90
2019-04-07T08:11:09.000Z,99.90
2019-04-07T08:13:43.932Z,99.90
2019-04-07T08:16:12.379Z,99.90
2019-04-07T08:18:46.123Z,99.90
2019-04-07T08:21:18.859Z,99.90
2019-04-07T08:23:49.555Z,99.90
2019-04-07T08:26:24.348Z,99.90
2019-04-07T08:28:55.110Z,99.90
2019-04-07T08:32:18.721Z,99.90
2019-04-07T08:34:50.584Z,99.90
2019-04-07T08:37:21.889Z,99.90
2019-04-07T08:39:52.616Z,99.90
2019-04-07T08:42:25.236Z,99.90
2019-04-07T08:44:59.228Z,99.90
2019-04-07T08:47:30.160Z,99.90
2019-04-07T08:50:01.930Z,99.90
2019-04-07T08:52:34.334Z,99.90
2019-04-07T08:55:07.296Z,99.90
2019-04-07T08:57:40.094Z,99.90
2019-04-07T09:00:15.608Z,99.90
2019-04-07T09:02:44.710Z,99.90
2019-04-07T09:05:16.210Z,99.90
2019-04-07T09:07:49.255Z,99.90
2019-04-07T09:10:24.942Z,99.90
2019-04-07T09:12:58.715Z,99.90
2019-04-07T09:15:29.466Z,99.90
2019-04-07T09:18:05.457Z,99.90
2019-04-07T09:20:44.315Z,99.90
2019-04-07T09:23:19.177Z,99.90
2019-04-07T09:26:11.975Z,99.90
2019-04-07T09:28:44.308Z,99.50
2019-04-07T09:31:20.337Z,99.90
2019-04-07T09:33:58.777Z,98.60
2019-04-07T09:36:32.583Z,98.70
2019-04-07T09:39:22.514Z,97.60
2019-04-07T09:41:58.372Z,96.80
2019-04-07T09:44:36.552Z,96.80
2019-04-07T09:47:06.327Z,95.10
2019-04-07T09:49:46.752Z,94.50
2019-04-07T09:52:17.905Z,94.60
2019-04-07T09:54:55.471Z,94.10
2019-04-07T09:57:38.990Z,92.50
2019-04-07T10:00:14.298Z,89.20
2019-04-07T10:02:50.546Z,90.00
2019-04-07T10:05:35.944Z,90.30
2019-04-07T10:08:25.879Z,90.50
2019-04-07T10:11:14.751Z,86.40
2019-04-07T10:13:49.747Z,88.70
2019-04-07T10:16:31.833Z,82.70
2019-04-07T10:19:09.841Z,82.50
2019-04-07T10:22:02.387Z,85.30
2019-04-07T10:24:37.060Z,81.90
2019-04-07T10:27:19.108Z,80.70
2019-04-07T10:30:07.896Z,78.80
2019-04-07T10:32:48.819Z,76.60
2019-04-07T10:35:37.327Z,76.60
2019-04-07T10:38:12.916Z,74.80
2019-04-07T10:40:47.864Z,70.40
2019-04-07T10:43:30.314Z,69.20
2019-04-07T10:46:19.017Z,68.60
2019-04-07T10:48:56.890Z,66.10
2019-04-07T10:51:37.946Z,64.80
2019-04-07T10:54:28.810Z,66.10
2019-04-07T10:57:01.023Z,64.10
2019-04-07T10:59:54.017Z,65.50
2019-04-07T11:02:36.130Z,65.50
2019-04-07T11:05:13.140Z,63.90
2019-04-07T11:07:45.754Z,63.90
2019-04-07T11:10:34.442Z,62.90
2019-04-07T11:13:17.104Z,61.50
2019-04-07T11:15:50.895Z,63.30
2019-04-07T11:18:38.242Z,59.60
2019-04-07T11:21:13.634Z,60.20
2019-04-07T11:24:03.845Z,58.70
2019-04-07T11:26:37.599Z,61.00
2019-04-07T11:29:13.325Z,62.20
2019-04-07T11:31:51.578Z,60.40
2019-04-07T11:34:33.191Z,60.60
2019-04-07T11:37:09.913Z,60.30
2019-04-07T11:39:42.523Z,59.30
2019-04-07T11:42:21.316Z,59.20
2019-04-07T11:44:54.191Z,59.10
2019-04-07T11:47:27.060Z,58.70
2019-04-07T11:50:12.435Z,56.70
2019-04-07T11:53:00.596Z,57.20
2019-04-07T11:55:46.429Z,56.60
2019-04-07T11:58:25.834Z,57.30
2019-04-07T12:01:27.103Z,56.20
2019-04-07T12:04:08.156Z,55.20
2019-04-07T12:06:49.226Z,53.40
2019-04-07T12:09:33.685Z,53.90
2019-04-07T12:12:27.652Z,54.60
2019-04-07T12:15:07.395Z,54.40
2019-04-07T12:17:53.478Z,56.60
2019-04-07T12:20:34.052Z,54.70
2019-04-07T12:23:21.921Z,55.30
2019-04-07T12:25:51.506Z,54.90
2019-04-07T12:28:36.525Z,55.30
2019-04-07T12:31:15.331Z,55.30
2019-04-07T12:34:00.780Z,55.80
2019-04-07T12:36:35.730Z,56.30
2019-04-07T12:39:25.618Z,54.60
2019-04-07T12:42:05.181Z,55.30
2019-04-07T12:44:53.826Z,54.50
2019-04-07T12:47:38.779Z,54.50
2019-04-07T12:50:31.658Z,54.20
2019-04-07T12:53:20.772Z,53.50
2019-04-07T12:56:00.463Z,52.40
2019-04-07T12:58:44.055Z,52.70
2019-04-07T13:01:31.637Z,53.00
2019-04-07T13:04:07.364Z,52.90
2019-04-07T13:06:46.881Z,52.50
2019-04-07T13:09:27.779Z,52.70
2019-04-07T13:12:04.067Z,52.40
2019-04-07T13:14:44.008Z,52.80
2019-04-07T13:17:23.156Z,53.00
2019-04-07T13:19:59.189Z,52.40
2019-04-07T13:22:45.609Z,53.10
2019-04-07T13:25:25.075Z,53.70
2019-04-07T13:27:58.823Z,53.80
2019-04-07T13:30:40.947Z,54.40
2019-04-07T13:33:23.764Z,54.60
2019-04-07T13:36:01.811Z,53.60
2019-04-07T13:38:50.164Z,53.90
2019-04-07T13:41:38.014Z,52.90
2019-04-07T13:44:10.750Z,53.20
2019-04-07T13:46:44.440Z,53.60
2019-04-07T13:49:34.134Z,54.60
2019-04-07T13:52:20.029Z,54.60
2019-04-07T13:54:54.760Z,55.10
2019-04-07T13:57:33.838Z,55.20
2019-04-07T14:00:13.462Z,55.70
2019-04-07T14:03:00.294Z,54.70
2019-04-07T14:05:43.053Z,54.50
2019-04-07T14:08:17.439Z,54.20
2019-04-07T14:11:23.852Z,54.50
2019-04-07T14:14:09.662Z,54.00
2019-04-07T14:16:47.602Z,54.80
2019-04-07T14:19:29.877Z,54.80
2019-04-07T14:22:20.851Z,54.80
2019-04-07T14:24:56.917Z,55.50
2019-04-07T14:27:39.614Z,56.00
2019-04-07T14:30:15.813Z,56.10
2019-04-07T14:32:52.033Z,56.00
2019-04-07T14:35:41.034Z,56.10
2019-04-07T14:38:13.602Z,56.70
2019-04-07T14:40:45.681Z,56.90
2019-04-07T14:43:21.715Z,56.70
2019-04-07T14:46:10.747Z,57.70
2019-04-07T14:48:56.490Z,57.90
2019-04-07T14:51:42.658Z,56.90
2019-04-07T14:54:15.344Z,57.30
2019-04-07T14:57:07.341Z,58.20
2019-04-07T14:59:58.959Z,58.40
2019-04-07T15:02:30.161Z,61.60
2019-04-07T15:05:01.878Z,61.80
2019-04-07T15:07:39.783Z,62.50
2019-04-07T15:10:16.979Z,60.60
2019-04-07T15:12:55.689Z,61.90
2019-04-07T15:15:27.891Z,63.60
2019-04-07T15:17:59.863Z,63.30
2019-04-07T15:20:32.262Z,65.40
2019-04-07T15:23:04.446Z,61.50
2019-04-07T15:25:40.657Z,69.20
2019-04-07T15:28:11.074Z,65.80
2019-04-07T15:30:46.029Z,62.10
2019-04-07T15:33:17.768Z,63.40
2019-04-07T15:35:58.918Z,64.30
2019-04-07T15:38:30.245Z,61.40
2019-04-07T15:41:15.263Z,59.90
2019-04-07T15:43:44.264Z,62.80
2019-04-07T15:46:19.249Z,61.30
2019-04-07T15:48:55.594Z,60.60
2019-04-07T15:51:28.261Z,59.20
2019-04-07T15:53:59.413Z,59.50
2019-04-07T15:56:31.542Z,60.60
2019-04-07T15:59:04.005Z,61.00
2019-04-07T16:01:38.646Z,59.60
2019-04-07T16:04:11.798Z,60.40
2019-04-07T16:06:47.084Z,61.30
2019-04-07T16:09:31.569Z,61.70
2019-04-07T16:12:13.422Z,61.70
2019-04-07T16:14:46.934Z,63.40
2019-04-07T16:17:18.998Z,61.50
2019-04-07T16:19:54.443Z,62.70
2019-04-07T16:22:28.828Z,62.20
2019-04-07T16:25:00.761Z,64.40
2019-04-07T16:27:36.544Z,63.30
2019-04-07T16:30:16.427Z,62.30
2019-04-07T16:33:04.032Z,62.80
2019-04-07T16:35:36.507Z,63.60
2019-04-07T16:38:08.389Z,64.60
2019-04-07T16:40:42.160Z,65.00
2019-04-07T16:43:16.271Z,64.90
2019-04-07T16:45:47.167Z,63.40
2019-04-07T16:48:39.834Z,63.30
2019-04-07T16:51:08.030Z,63.20
2019-04-07T16:53:41.779Z,64.60
2019-04-07T16:56:13.366Z,63.70
2019-04-07T16:58:43.687Z,64.60
2019-04-07T17:01:34.655Z,64.70
2019-04-07T17:04:06.367Z,64.50
2019-04-07T17:06:44.841Z,64.10
2019-04-07T17:09:25.099Z,64.50
2019-04-07T17:11:54.947Z,63.80
2019-04-07T17:14:26.893Z,64.90
2019-04-07T17:16:59.074Z,64.60
2019-04-07T17:19:30.961Z,64.50
2019-04-07T17:22:01.849Z,64.50
2019-04-07T17:24:35.537Z,65.20
2019-04-07T17:27:09.748Z,64.80
2019-04-07T17:29:41.678Z,65.80
2019-04-07T17:32:13.332Z,65.00
2019-04-07T17:34:44.940Z,65.20
2019-04-07T17:37:17.527Z,65.00
2019-04-07T17:39:52.712Z,65.70
2019-04-07T17:42:27.245Z,65.40
2019-04-07T17:44:58.079Z,66.80
2019-04-07T17:47:45.725Z,67.80
2019-04-07T17:50:36.838Z,67.10
2019-04-07T17:53:41.340Z,67.20
2019-04-07T17:56:24.170Z,69.20
2019-04-07T17:59:04.456Z,67.30
2019-04-07T18:01:37.763Z,68.40
2019-04-07T18:04:30.566Z,69.10
2019-04-07T18:07:23.353Z,69.70
2019-04-07T18:10:12.249Z,69.10
2019-04-07T18:13:02.977Z,69.60
2019-04-07T18:15:36.633Z,70.90
2019-04-07T18:18:10.477Z,70.90
2019-04-07T18:20:46.368Z,71.30
2019-04-07T18:23:26.246Z,72.50
2019-04-07T18:26:06.323Z,72.30
2019-04-07T18:28:55.202Z,73.50
2019-04-07T18:31:38.735Z,73.80
2019-04-07T18:34:15.324Z,74.60
2019-04-07T18:36:52.124Z,75.70
2019-04-07T18:39:27.591Z,74.90
2019-04-07T18:42:17.784Z,76.40
2019-04-07T18:47:45.158Z,77.10
2019-04-07T18:50:30.690Z,77.50
2019-04-07T18:53:12.234Z,76.90
2019-04-07T18:55:54.334Z,78.50
2019-04-07T18:58:37.452Z,77.70
2019-04-07T19:01:16.916Z,78.40
2019-04-07T19:04:02.390Z,78.40
2019-04-07T19:06:36.919Z,78.40
2019-04-07T19:09:14.205Z,79.20
2019-04-07T19:12:07.897Z,79.40
2019-04-07T19:15:00.814Z,79.20
2019-04-07T19:17:26.063Z,79.20
2019-04-07T19:20:15.920Z,79.60
2019-04-07T19:22:52.815Z,80.90
2019-04-07T19:25:42.662Z,81.70
2019-04-07T19:28:28.425Z,81.90
2019-04-07T19:31:05.189Z,83.60
2019-04-07T19:33:55.959Z,81.90
2019-04-07T19:36:27.367Z,83.40
2019-04-07T19:39:02.797Z,84.90
2019-04-07T19:41:53.367Z,83.40
2019-04-07T19:44:46.124Z,84.30
2019-04-07T19:47:34.568Z,84.40
2019-04-07T19:50:22.693Z,83.90
2019-04-07T19:53:03.862Z,84.70
2019-04-07T19:55:41.263Z,84.30
2019-04-07T19:58:35.294Z,84.60
2019-04-07T20:01:03.390Z,85.90
2019-04-07T20:03:52.408Z,86.50
2019-04-07T20:06:24.865Z,86.70
2019-04-07T20:09:12.670Z,88.60
2019-04-07T20:11:48.183Z,87.90
2019-04-07T20:14:28.843Z,88.50
2019-04-07T20:17:04.207Z,89.90
2019-04-07T20:19:40.254Z,90.00
2019-04-07T20:22:11.806Z,90.20
2019-04-07T20:24:47.251Z,90.30
2019-04-07T20:27:27.359Z,90.80
2019-04-07T20:30:15.443Z,90.70
2019-04-07T20:32:48.209Z,90.80
2019-04-07T20:35:20.862Z,91.20
2019-04-07T20:38:08.016Z,91.80
2019-04-07T20:40:46.716Z,92.00
2019-04-07T20:43:40.555Z,92.00
2019-04-07T20:46:28.217Z,94.60
2019-04-07T20:49:08.945Z,99.90
2019-04-07T20:51:48.070Z,99.90
2019-04-07T20:54:33.079Z,99.90
2019-04-07T20:57:07.836Z,99.90
2019-04-07T20:59:55.254Z,99.90
2019-04-07T21:02:45.221Z,99.90
2019-04-07T21:05:18.629Z,99.90
2019-04-07T21:08:10.362Z,99.90
2019-04-07T21:10:53.906Z,99.90
2019-04-07T21:13:28.952Z,99.90
2019-04-07T21:16:07.005Z,99.90
2019-04-07T21:18:55.122Z,99.90
2019-04-07T21:21:34.550Z,99.90
2019-04-07T21:24:07.814Z,99.90
2019-04-07T21:26:45.601Z,99.90
2019-04-07T21:29:22.509Z,99.90
2019-04-07T21:32:10.843Z,99.90
2019-04-07T21:34:44.956Z,99.90
2019-04-07T21:37:16.425Z,99.90
2019-04-07T21:39:47.125Z,99.90
2019-04-07T21:42:25.738Z,99.90
2019-04-07T21:45:06.340Z,99.90
2019-04-07T21:47:46.118Z,99.90
2019-04-07T21:50:26.886Z,99.90
2019-04-07T21:53:14.253Z,99.90
2019-04-07T21:56:01.743Z,99.90
2019-04-07T21:58:32.195Z,99.90
2019-04-07T22:01:18.989Z,99.90
2019-04-07T22:03:49.684Z,99.90
2019-04-07T22:06:23.598Z,99.90
2019-04-07T22:09:00.283Z,99.90
2019-04-07T22:11:30.438Z,99.90
2019-04-07T22:13:59.450Z,99.90
2019-04-07T22:16:31.425Z,99.90
2019-04-07T22:18:58.796Z,99.90
2019-04-07T22:21:27.756Z,99.90
2019-04-07T22:23:56.628Z,99.90
2019-04-07T22:26:25.089Z,99.90
2019-04-07T22:28:53.717Z,99.90
2019-04-07T22:31:26.923Z,99.90
2019-04-07T22:33:58.033Z,99.90
2019-04-07T22:36:25.663Z,99.90
2019-04-07T22:38:56.476Z,99.90
2019-04-07T22:41:25.708Z,99.90
2019-04-07T22:43:55.351Z,99.90
2019-04-07T22:46:27.102Z,99.90
2019-04-07T22:48:56.970Z,99.90
2019-04-07T22:51:25.041Z,99.90
2019-04-07T22:53:56.181Z,99.90
2019-04-07T22:56:24.378Z,99.90
2019-04-07T22:58:53.017Z,99.90
2019-04-07T23:01:21.576Z,99.90
2019-04-07T23:03:50.089Z,99.90
2019-04-07T23:06:18.991Z,99.90
2019-04-07T23:08:47.705Z,99.90
2019-04-07T23:11:16.197Z,99.90
2019-04-07T23:13:45.144Z,99.90
2019-04-07T23:16:16.099Z,99.90
2019-04-07T23:18:44.509Z,99.90
2019-04-07T23:21:14.903Z,99.90
2019-04-07T23:23:43.507Z,99.90
2019-04-07T23:26:11.984Z,99.90
2019-04-07T23:28:40.865Z,99.90
2019-04-07T23:31:09.652Z,99.90
2019-04-07T23:33:38.316Z,99.90
2019-04-07T23:36:07.106Z,99.90
2019-04-07T23:38:35.588Z,99.90
2019-04-07T23:41:04.135Z,99.90
2019-04-07T23:43:33.442Z,99.90
2019-04-07T23:46:03.047Z,99.90
2019-04-07T23:48:32.606Z,99.90
2019-04-07T23:51:01.709Z,99.90
2019-04-07T23:53:53.770Z,99.90
2019-04-07T23:56:22.660Z,99.90
2019-04-07T23:58:52.012Z,99.90
